sensor_id;sensor_type;location;lat;lon;timestamp;P1;durP1;ratioP1;P2;durP2;ratioP2
26512;SDS011;14186;53.822;10.152;2023-08-24T00:02:06;8.20;;;5.15;;
26512;SDS011;14186;53.822;10.152;2023-08-24T00:07:06;10.90;;;6.20;;
26512;SDS011;14186;53.822;10.152;2023-08-24T00:12:06;8.38;;;5.65;;
26512;SDS011;14186;53.822;10.152;2023-08-24T00:17:08;7.75;;;5.40;;
26512;SDS011;14186;53.822;10.152;2023-08-24T00:22:08;12.00;;;6.25;;
26512;SDS011;14186;53.822;10.152;2023-08-24T00:27:08;8.23;;;5.70;;
26512;SDS011;14186;53.822;10.152;2023-08-24T00:32:10;11.15;;;6.65;;
26512;SDS011;14186;53.822;10.152;2023-08-24T00:37:10;9.77;;;5.93;;
26512;SDS011;14186;53.822;10.152;2023-08-24T00:42:10;10.73;;;6.50;;
26512;SDS011;14186;53.822;10.152;2023-08-24T00:47:12;11.70;;;6.10;;
26512;SDS011;14186;53.822;10.152;2023-08-24T00:52:12;10.68;;;6.32;;
26512;SDS011;14186;53.822;10.152;2023-08-24T00:57:13;9.98;;;6.60;;
26512;SDS011;14186;53.822;10.152;2023-08-24T01:02:14;11.35;;;6.13;;
26512;SDS011;14186;53.822;10.152;2023-08-24T01:07:14;11.25;;;7.00;;
26512;SDS011;14186;53.822;10.152;2023-08-24T01:12:18;10.00;;;6.13;;
26512;SDS011;14186;53.822;10.152;2023-08-24T01:17:22;12.03;;;7.33;;
26512;SDS011;14186;53.822;10.152;2023-08-24T01:22:31;16.20;;;8.38;;
26512;SDS011;14186;53.822;10.152;2023-08-24T01:27:33;11.25;;;7.03;;
26512;SDS011;14186;53.822;10.152;2023-08-24T01:32:34;13.00;;;7.38;;
26512;SDS011;14186;53.822;10.152;2023-08-24T01:37:35;13.18;;;7.20;;
26512;SDS011;14186;53.822;10.152;2023-08-24T01:42:37;12.20;;;7.82;;
26512;SDS011;14186;53.822;10.152;2023-08-24T01:47:42;12.45;;;6.40;;
26512;SDS011;14186;53.822;10.152;2023-08-24T01:52:43;9.73;;;6.32;;
26512;SDS011;14186;53.822;10.152;2023-08-24T01:57:45;10.80;;;6.25;;
26512;SDS011;14186;53.822;10.152;2023-08-24T02:02:45;11.15;;;7.10;;
26512;SDS011;14186;53.822;10.152;2023-08-24T02:07:45;8.90;;;4.43;;
26512;SDS011;14186;53.822;10.152;2023-08-24T02:12:47;13.50;;;7.45;;
26512;SDS011;14186;53.822;10.152;2023-08-24T02:17:47;13.38;;;7.68;;
26512;SDS011;14186;53.822;10.152;2023-08-24T02:22:47;14.70;;;7.30;;
26512;SDS011;14186;53.822;10.152;2023-08-24T02:27:49;12.45;;;6.82;;
26512;SDS011;14186;53.822;10.152;2023-08-24T02:32:49;12.98;;;6.43;;
26512;SDS011;14186;53.822;10.152;2023-08-24T02:37:49;16.50;;;8.23;;
26512;SDS011;14186;53.822;10.152;2023-08-24T02:42:50;13.43;;;8.57;;
26512;SDS011;14186;53.822;10.152;2023-08-24T02:47:51;12.25;;;7.15;;
26512;SDS011;14186;53.822;10.152;2023-08-24T02:52:51;11.45;;;6.90;;
26512;SDS011;14186;53.822;10.152;2023-08-24T02:57:52;11.02;;;6.57;;
26512;SDS011;14186;53.822;10.152;2023-08-24T03:02:53;10.82;;;5.22;;
26512;SDS011;14186;53.822;10.152;2023-08-24T03:07:53;10.90;;;5.82;;
26512;SDS011;14186;53.822;10.152;2023-08-24T03:12:54;7.57;;;5.55;;
26512;SDS011;14186;53.822;10.152;2023-08-24T03:17:54;6.85;;;4.47;;
26512;SDS011;14186;53.822;10.152;2023-08-24T03:22:55;7.22;;;3.70;;
26512;SDS011;14186;53.822;10.152;2023-08-24T03:27:56;6.80;;;4.03;;
26512;SDS011;14186;53.822;10.152;2023-08-24T03:32:56;7.70;;;3.85;;
26512;SDS011;14186;53.822;10.152;2023-08-24T03:37:57;4.93;;;3.25;;
26512;SDS011;14186;53.822;10.152;2023-08-24T03:42:58;7.75;;;4.72;;
26512;SDS011;14186;53.822;10.152;2023-08-24T03:47:58;7.10;;;4.53;;
26512;SDS011;14186;53.822;10.152;2023-08-24T03:52:59;5.85;;;3.80;;
26512;SDS011;14186;53.822;10.152;2023-08-24T03:58:00;8.60;;;5.15;;
26512;SDS011;14186;53.822;10.152;2023-08-24T04:03:00;9.00;;;5.20;;
26512;SDS011;14186;53.822;10.152;2023-08-24T04:08:01;12.60;;;5.40;;
26512;SDS011;14186;53.822;10.152;2023-08-24T04:13:02;11.43;;;6.50;;
26512;SDS011;14186;53.822;10.152;2023-08-24T04:18:03;13.13;;;6.18;;
26512;SDS011;14186;53.822;10.152;2023-08-24T04:23:03;8.63;;;5.00;;
26512;SDS011;14186;53.822;10.152;2023-08-24T04:28:05;11.30;;;5.35;;
26512;SDS011;14186;53.822;10.152;2023-08-24T04:33:05;13.23;;;6.15;;
26512;SDS011;14186;53.822;10.152;2023-08-24T04:38:05;12.68;;;7.05;;
26512;SDS011;14186;53.822;10.152;2023-08-24T04:43:07;7.82;;;5.47;;
26512;SDS011;14186;53.822;10.152;2023-08-24T04:48:07;30.58;;;6.25;;
26512;SDS011;14186;53.822;10.152;2023-08-24T04:53:07;8.38;;;4.57;;
26512;SDS011;14186;53.822;10.152;2023-08-24T04:58:09;35.22;;;6.90;;
26512;SDS011;14186;53.822;10.152;2023-08-24T05:03:10;20.23;;;7.60;;
26512;SDS011;14186;53.822;10.152;2023-08-24T05:08:10;11.65;;;5.78;;
26512;SDS011;14186;53.822;10.152;2023-08-24T05:13:12;16.92;;;6.32;;
26512;SDS011;14186;53.822;10.152;2023-08-24T05:18:12;13.00;;;6.20;;
26512;SDS011;14186;53.822;10.152;2023-08-24T05:23:12;19.70;;;6.00;;
26512;SDS011;14186;53.822;10.152;2023-08-24T05:28:14;16.50;;;5.50;;
26512;SDS011;14186;53.822;10.152;2023-08-24T05:33:14;8.98;;;4.10;;
26512;SDS011;14186;53.822;10.152;2023-08-24T05:38:14;14.38;;;3.90;;
26512;SDS011;14186;53.822;10.152;2023-08-24T05:43:16;7.35;;;2.88;;
26512;SDS011;14186;53.822;10.152;2023-08-24T05:48:16;3.88;;;1.83;;
26512;SDS011;14186;53.822;10.152;2023-08-24T05:53:16;3.80;;;2.05;;
26512;SDS011;14186;53.822;10.152;2023-08-24T05:58:18;2.40;;;1.70;;
26512;SDS011;14186;53.822;10.152;2023-08-24T06:03:18;2.42;;;1.90;;
26512;SDS011;14186;53.822;10.152;2023-08-24T06:08:19;2.38;;;1.67;;
26512;SDS011;14186;53.822;10.152;2023-08-24T06:13:21;2.22;;;1.55;;
26512;SDS011;14186;53.822;10.152;2023-08-24T06:18:21;2.95;;;2.17;;
26512;SDS011;14186;53.822;10.152;2023-08-24T06:23:21;3.15;;;2.35;;
26512;SDS011;14186;53.822;10.152;2023-08-24T06:28:23;4.13;;;2.90;;
26512;SDS011;14186;53.822;10.152;2023-08-24T06:33:26;7.32;;;3.63;;
26512;SDS011;14186;53.822;10.152;2023-08-24T06:38:26;6.32;;;3.20;;
26512;SDS011;14186;53.822;10.152;2023-08-24T06:43:28;3.33;;;2.20;;
26512;SDS011;14186;53.822;10.152;2023-08-24T06:48:28;2.20;;;1.42;;
26512;SDS011;14186;53.822;10.152;2023-08-24T06:53:28;3.63;;;1.20;;
26512;SDS011;14186;53.822;10.152;2023-08-24T06:58:30;6.93;;;1.70;;
26512;SDS011;14186;53.822;10.152;2023-08-24T07:03:30;2.00;;;1.20;;
26512;SDS011;14186;53.822;10.152;2023-08-24T07:08:30;4.70;;;1.40;;
26512;SDS011;14186;53.822;10.152;2023-08-24T07:13:32;1.83;;;0.70;;
26512;SDS011;14186;53.822;10.152;2023-08-24T07:18:32;4.18;;;1.00;;
26512;SDS011;14186;53.822;10.152;2023-08-24T07:23:32;3.92;;;1.40;;
26512;SDS011;14186;53.822;10.152;2023-08-24T07:28:34;2.75;;;0.95;;
26512;SDS011;14186;53.822;10.152;2023-08-24T07:33:34;3.13;;;1.33;;
26512;SDS011;14186;53.822;10.152;2023-08-24T07:38:34;3.42;;;1.13;;
26512;SDS011;14186;53.822;10.152;2023-08-24T07:43:36;4.90;;;1.00;;
26512;SDS011;14186;53.822;10.152;2023-08-24T07:48:36;3.90;;;0.80;;
26512;SDS011;14186;53.822;10.152;2023-08-24T07:53:36;6.63;;;1.67;;
26512;SDS011;14186;53.822;10.152;2023-08-24T07:58:38;3.20;;;1.25;;
26512;SDS011;14186;53.822;10.152;2023-08-24T08:03:38;4.20;;;1.50;;
26512;SDS011;14186;53.822;10.152;2023-08-24T08:08:38;4.07;;;1.10;;
26512;SDS011;14186;53.822;10.152;2023-08-24T08:13:40;9.57;;;1.33;;
26512;SDS011;14186;53.822;10.152;2023-08-24T08:18:40;6.57;;;1.10;;
26512;SDS011;14186;53.822;10.152;2023-08-24T08:23:40;3.97;;;0.68;;
26512;SDS011;14186;53.822;10.152;2023-08-24T08:28:42;2.35;;;0.80;;
26512;SDS011;14186;53.822;10.152;2023-08-24T08:33:42;4.70;;;1.10;;
26512;SDS011;14186;53.822;10.152;2023-08-24T08:38:42;4.18;;;1.00;;
26512;SDS011;14186;53.822;10.152;2023-08-24T08:43:44;2.08;;;0.70;;
26512;SDS011;14186;53.822;10.152;2023-08-24T08:48:44;2.08;;;0.70;;
26512;SDS011;14186;53.822;10.152;2023-08-24T08:53:45;2.58;;;0.70;;
26512;SDS011;14186;53.822;10.152;2023-08-24T08:58:47;3.83;;;1.50;;
26512;SDS011;14186;53.822;10.152;2023-08-24T09:03:48;3.35;;;0.73;;
26512;SDS011;14186;53.822;10.152;2023-08-24T09:08:48;2.58;;;0.70;;
26512;SDS011;14186;53.822;10.152;2023-08-24T09:13:50;0.93;;;0.50;;
26512;SDS011;14186;53.822;10.152;2023-08-24T09:18:50;1.17;;;0.40;;
26512;SDS011;14186;53.822;10.152;2023-08-24T09:23:52;1.35;;;0.60;;
26512;SDS011;14186;53.822;10.152;2023-08-24T09:28:53;2.58;;;0.50;;
26512;SDS011;14186;53.822;10.152;2023-08-24T09:33:59;3.58;;;0.60;;
26512;SDS011;14186;53.822;10.152;2023-08-24T09:39:01;2.90;;;0.77;;
26512;SDS011;14186;53.822;10.152;2023-08-24T09:44:04;2.47;;;0.60;;
26512;SDS011;14186;53.822;10.152;2023-08-24T09:49:05;3.55;;;1.00;;
26512;SDS011;14186;53.822;10.152;2023-08-24T09:54:05;1.73;;;0.50;;
26512;SDS011;14186;53.822;10.152;2023-08-24T09:59:10;2.53;;;0.63;;
26512;SDS011;14186;53.822;10.152;2023-08-24T10:04:11;1.42;;;0.50;;
26512;SDS011;14186;53.822;10.152;2023-08-24T10:09:14;2.15;;;0.90;;
26512;SDS011;14186;53.822;10.152;2023-08-24T10:14:21;2.42;;;0.70;;
26512;SDS011;14186;53.822;10.152;2023-08-24T10:19:23;1.40;;;0.55;;
26512;SDS011;14186;53.822;10.152;2023-08-24T10:24:24;3.30;;;0.88;;
26512;SDS011;14186;53.822;10.152;2023-08-24T10:29:25;1.60;;;0.60;;
26512;SDS011;14186;53.822;10.152;2023-08-24T10:34:27;2.28;;;0.52;;
26512;SDS011;14186;53.822;10.152;2023-08-24T10:39:27;1.45;;;0.70;;
26512;SDS011;14186;53.822;10.152;2023-08-24T10:44:34;4.05;;;1.00;;
26512;SDS011;14186;53.822;10.152;2023-08-24T10:49:35;3.55;;;1.00;;
26512;SDS011;14186;53.822;10.152;2023-08-24T10:54:35;3.13;;;1.05;;
26512;SDS011;14186;53.822;10.152;2023-08-24T10:59:43;1.73;;;0.80;;
26512;SDS011;14186;53.822;10.152;2023-08-24T11:09:58;2.03;;;0.80;;
26512;SDS011;14186;53.822;10.152;2023-08-24T11:15:00;3.20;;;1.23;;
26512;SDS011;14186;53.822;10.152;2023-08-24T11:20:00;4.63;;;1.48;;
26512;SDS011;14186;53.822;10.152;2023-08-24T11:25:00;6.28;;;1.42;;
26512;SDS011;14186;53.822;10.152;2023-08-24T11:30:02;4.17;;;1.60;;
26512;SDS011;14186;53.822;10.152;2023-08-24T11:35:03;3.95;;;1.40;;
26512;SDS011;14186;53.822;10.152;2023-08-24T11:40:04;4.28;;;1.60;;
26512;SDS011;14186;53.822;10.152;2023-08-24T11:45:08;4.20;;;1.50;;
26512;SDS011;14186;53.822;10.152;2023-08-24T11:50:10;4.63;;;2.03;;
26512;SDS011;14186;53.822;10.152;2023-08-24T11:55:11;8.03;;;2.13;;
26512;SDS011;14186;53.822;10.152;2023-08-24T12:00:13;7.82;;;1.70;;
26512;SDS011;14186;53.822;10.152;2023-08-24T12:05:20;2.83;;;1.42;;
26512;SDS011;14186;53.822;10.152;2023-08-24T12:10:21;2.45;;;1.25;;
26512;SDS011;14186;53.822;10.152;2023-08-24T12:15:22;3.20;;;1.23;;
26512;SDS011;14186;53.822;10.152;2023-08-24T12:20:23;3.03;;;1.50;;
26512;SDS011;14186;53.822;10.152;2023-08-24T12:25:23;5.05;;;1.77;;
26512;SDS011;14186;53.822;10.152;2023-08-24T12:30:25;3.72;;;1.50;;
26512;SDS011;14186;53.822;10.152;2023-08-24T12:35:25;3.03;;;1.40;;
26512;SDS011;14186;53.822;10.152;2023-08-24T12:40:25;4.05;;;1.48;;
26512;SDS011;14186;53.822;10.152;2023-08-24T12:45:27;4.22;;;2.20;;
26512;SDS011;14186;53.822;10.152;2023-08-24T12:50:27;5.35;;;1.38;;
26512;SDS011;14186;53.822;10.152;2023-08-24T12:55:27;4.93;;;1.70;;
26512;SDS011;14186;53.822;10.152;2023-08-24T13:00:29;4.53;;;1.70;;
26512;SDS011;14186;53.822;10.152;2023-08-24T13:05:29;6.10;;;1.98;;
26512;SDS011;14186;53.822;10.152;2023-08-24T13:10:29;7.00;;;1.48;;
26512;SDS011;14186;53.822;10.152;2023-08-24T13:15:31;7.10;;;1.77;;
26512;SDS011;14186;53.822;10.152;2023-08-24T13:20:31;5.72;;;1.42;;
26512;SDS011;14186;53.822;10.152;2023-08-24T13:25:31;4.15;;;1.73;;
26512;SDS011;14186;53.822;10.152;2023-08-24T13:30:33;9.23;;;3.03;;
26512;SDS011;14186;53.822;10.152;2023-08-24T13:35:34;5.63;;;2.10;;
26512;SDS011;14186;53.822;10.152;2023-08-24T13:40:34;2.83;;;1.60;;
26512;SDS011;14186;53.822;10.152;2023-08-24T13:45:36;5.57;;;2.30;;
26512;SDS011;14186;53.822;10.152;2023-08-24T13:50:36;3.45;;;1.20;;
26512;SDS011;14186;53.822;10.152;2023-08-24T13:55:36;2.92;;;1.20;;
26512;SDS011;14186;53.822;10.152;2023-08-24T14:00:38;4.57;;;1.80;;
26512;SDS011;14186;53.822;10.152;2023-08-24T14:05:38;3.03;;;1.15;;
26512;SDS011;14186;53.822;10.152;2023-08-24T14:10:38;4.88;;;1.20;;
26512;SDS011;14186;53.822;10.152;2023-08-24T14:15:40;3.47;;;1.17;;
26512;SDS011;14186;53.822;10.152;2023-08-24T14:20:40;4.63;;;1.40;;
26512;SDS011;14186;53.822;10.152;2023-08-24T14:25:40;3.30;;;1.40;;
26512;SDS011;14186;53.822;10.152;2023-08-24T14:30:42;3.05;;;1.25;;
26512;SDS011;14186;53.822;10.152;2023-08-24T14:35:48;2.47;;;1.25;;
26512;SDS011;14186;53.822;10.152;2023-08-24T14:40:49;2.05;;;1.20;;
26512;SDS011;14186;53.822;10.152;2023-08-24T14:45:50;2.80;;;1.23;;
26512;SDS011;14186;53.822;10.152;2023-08-24T14:50:50;3.08;;;1.83;;
26512;SDS011;14186;53.822;10.152;2023-08-24T14:55:52;3.75;;;1.35;;
26512;SDS011;14186;53.822;10.152;2023-08-24T15:00:54;3.45;;;1.25;;
26512;SDS011;14186;53.822;10.152;2023-08-24T15:05:58;5.97;;;1.40;;
26512;SDS011;14186;53.822;10.152;2023-08-24T15:16:00;3.67;;;1.30;;
26512;SDS011;14186;53.822;10.152;2023-08-24T15:21:00;3.67;;;1.17;;
26512;SDS011;14186;53.822;10.152;2023-08-24T15:26:00;3.53;;;1.25;;
26512;SDS011;14186;53.822;10.152;2023-08-24T15:31:02;6.63;;;1.80;;
26512;SDS011;14186;53.822;10.152;2023-08-24T15:36:02;4.07;;;1.30;;
26512;SDS011;14186;53.822;10.152;2023-08-24T15:41:03;4.93;;;1.92;;
26512;SDS011;14186;53.822;10.152;2023-08-24T15:46:04;7.75;;;1.55;;
26512;SDS011;14186;53.822;10.152;2023-08-24T15:51:04;4.47;;;1.08;;
26512;SDS011;14186;53.822;10.152;2023-08-24T15:56:05;2.80;;;1.27;;
26512;SDS011;14186;53.822;10.152;2023-08-24T16:01:06;3.95;;;1.00;;
26512;SDS011;14186;53.822;10.152;2023-08-24T16:06:06;4.05;;;1.50;;
26512;SDS011;14186;53.822;10.152;2023-08-24T16:11:07;6.50;;;1.60;;
26512;SDS011;14186;53.822;10.152;2023-08-24T16:16:08;2.40;;;1.20;;
26512;SDS011;14186;53.822;10.152;2023-08-24T16:21:08;5.93;;;1.50;;
26512;SDS011;14186;53.822;10.152;2023-08-24T16:26:09;3.15;;;1.30;;
26512;SDS011;14186;53.822;10.152;2023-08-24T16:31:11;2.42;;;1.27;;
26512;SDS011;14186;53.822;10.152;2023-08-24T16:36:11;5.15;;;1.50;;
26512;SDS011;14186;53.822;10.152;2023-08-24T16:41:11;3.08;;;1.30;;
26512;SDS011;14186;53.822;10.152;2023-08-24T16:46:13;3.83;;;1.27;;
26512;SDS011;14186;53.822;10.152;2023-08-24T16:51:13;3.72;;;1.35;;
26512;SDS011;14186;53.822;10.152;2023-08-24T16:56:13;2.80;;;1.50;;
26512;SDS011;14186;53.822;10.152;2023-08-24T17:01:15;4.28;;;1.33;;
26512;SDS011;14186;53.822;10.152;2023-08-24T17:06:15;4.00;;;1.42;;
26512;SDS011;14186;53.822;10.152;2023-08-24T17:11:15;5.35;;;1.92;;
26512;SDS011;14186;53.822;10.152;2023-08-24T17:16:17;4.80;;;2.45;;
26512;SDS011;14186;53.822;10.152;2023-08-24T17:21:17;3.47;;;1.90;;
26512;SDS011;14186;53.822;10.152;2023-08-24T17:26:17;7.88;;;2.13;;
26512;SDS011;14186;53.822;10.152;2023-08-24T17:31:19;6.53;;;2.35;;
26512;SDS011;14186;53.822;10.152;2023-08-24T17:36:19;4.55;;;1.67;;
26512;SDS011;14186;53.822;10.152;2023-08-24T17:41:19;3.78;;;2.05;;
26512;SDS011;14186;53.822;10.152;2023-08-24T17:46:20;3.90;;;1.92;;
26512;SDS011;14186;53.822;10.152;2023-08-24T17:51:21;5.85;;;1.98;;
26512;SDS011;14186;53.822;10.152;2023-08-24T17:56:21;3.40;;;1.70;;
26512;SDS011;14186;53.822;10.152;2023-08-24T18:01:22;3.22;;;1.40;;
26512;SDS011;14186;53.822;10.152;2023-08-24T18:06:23;3.13;;;1.10;;
26512;SDS011;14186;53.822;10.152;2023-08-24T18:11:23;3.28;;;1.15;;
26512;SDS011;14186;53.822;10.152;2023-08-24T18:16:24;5.50;;;1.40;;
26512;SDS011;14186;53.822;10.152;2023-08-24T18:21:25;5.10;;;1.10;;
26512;SDS011;14186;53.822;10.152;2023-08-24T18:26:25;2.08;;;0.80;;
26512;SDS011;14186;53.822;10.152;2023-08-24T18:31:26;5.70;;;1.02;;
26512;SDS011;14186;53.822;10.152;2023-08-24T18:36:27;7.07;;;1.20;;
26512;SDS011;14186;53.822;10.152;2023-08-24T18:41:27;3.35;;;1.25;;
26512;SDS011;14186;53.822;10.152;2023-08-24T18:46:28;3.78;;;1.13;;
26512;SDS011;14186;53.822;10.152;2023-08-24T18:51:29;2.58;;;1.10;;
26512;SDS011;14186;53.822;10.152;2023-08-24T18:56:29;4.50;;;1.23;;
26512;SDS011;14186;53.822;10.152;2023-08-24T19:01:30;5.07;;;1.65;;
26512;SDS011;14186;53.822;10.152;2023-08-24T19:06:31;4.43;;;1.20;;
26512;SDS011;14186;53.822;10.152;2023-08-24T19:11:31;5.05;;;1.48;;
26512;SDS011;14186;53.822;10.152;2023-08-24T19:16:33;4.03;;;1.30;;
26512;SDS011;14186;53.822;10.152;2023-08-24T19:21:33;3.65;;;1.33;;
26512;SDS011;14186;53.822;10.152;2023-08-24T19:26:33;5.13;;;1.58;;
26512;SDS011;14186;53.822;10.152;2023-08-24T19:31:35;1.85;;;1.27;;
26512;SDS011;14186;53.822;10.152;2023-08-24T19:36:35;2.80;;;1.20;;
26512;SDS011;14186;53.822;10.152;2023-08-24T19:41:35;5.97;;;1.27;;
26512;SDS011;14186;53.822;10.152;2023-08-24T19:46:36;2.08;;;0.95;;
26512;SDS011;14186;53.822;10.152;2023-08-24T19:51:37;4.05;;;1.02;;
26512;SDS011;14186;53.822;10.152;2023-08-24T19:56:37;5.05;;;1.20;;
26512;SDS011;14186;53.822;10.152;2023-08-24T20:01:38;2.35;;;1.23;;
26512;SDS011;14186;53.822;10.152;2023-08-24T20:06:39;2.85;;;1.08;;
26512;SDS011;14186;53.822;10.152;2023-08-24T20:11:39;3.22;;;1.08;;
26512;SDS011;14186;53.822;10.152;2023-08-24T20:16:40;4.45;;;1.10;;
26512;SDS011;14186;53.822;10.152;2023-08-24T20:21:41;5.70;;;1.10;;
26512;SDS011;14186;53.822;10.152;2023-08-24T20:26:41;6.75;;;0.80;;
26512;SDS011;14186;53.822;10.152;2023-08-24T20:31:42;3.33;;;1.00;;
26512;SDS011;14186;53.822;10.152;2023-08-24T20:36:43;4.82;;;0.90;;
26512;SDS011;14186;53.822;10.152;2023-08-24T20:41:45;5.85;;;1.38;;
26512;SDS011;14186;53.822;10.152;2023-08-24T20:46:47;3.63;;;1.08;;
26512;SDS011;14186;53.822;10.152;2023-08-24T20:51:47;3.30;;;1.10;;
26512;SDS011;14186;53.822;10.152;2023-08-24T20:56:47;3.58;;;1.13;;
26512;SDS011;14186;53.822;10.152;2023-08-24T21:01:49;2.25;;;0.90;;
26512;SDS011;14186;53.822;10.152;2023-08-24T21:06:49;3.55;;;1.00;;
26512;SDS011;14186;53.822;10.152;2023-08-24T21:11:49;5.53;;;1.45;;
26512;SDS011;14186;53.822;10.152;2023-08-24T21:16:51;8.73;;;1.40;;
26512;SDS011;14186;53.822;10.152;2023-08-24T21:21:51;3.53;;;1.27;;
26512;SDS011;14186;53.822;10.152;2023-08-24T21:26:51;4.10;;;1.23;;
26512;SDS011;14186;53.822;10.152;2023-08-24T21:31:53;2.97;;;1.00;;
26512;SDS011;14186;53.822;10.152;2023-08-24T21:36:53;4.53;;;1.08;;
26512;SDS011;14186;53.822;10.152;2023-08-24T21:41:53;4.43;;;1.05;;
26512;SDS011;14186;53.822;10.152;2023-08-24T21:46:55;2.10;;;0.90;;
26512;SDS011;14186;53.822;10.152;2023-08-24T21:51:55;2.13;;;0.93;;
26512;SDS011;14186;53.822;10.152;2023-08-24T21:56:55;4.78;;;1.08;;
26512;SDS011;14186;53.822;10.152;2023-08-24T22:01:57;2.63;;;1.00;;
26512;SDS011;14186;53.822;10.152;2023-08-24T22:06:57;1.95;;;0.80;;
26512;SDS011;14186;53.822;10.152;2023-08-24T22:11:57;3.50;;;0.98;;
26512;SDS011;14186;53.822;10.152;2023-08-24T22:16:59;4.32;;;1.20;;
26512;SDS011;14186;53.822;10.152;2023-08-24T22:21:59;5.57;;;1.95;;
26512;SDS011;14186;53.822;10.152;2023-08-24T22:26:59;3.50;;;1.30;;
26512;SDS011;14186;53.822;10.152;2023-08-24T22:32:01;3.63;;;2.28;;
26512;SDS011;14186;53.822;10.152;2023-08-24T22:37:01;3.25;;;1.60;;
26512;SDS011;14186;53.822;10.152;2023-08-24T22:42:01;3.90;;;1.55;;
26512;SDS011;14186;53.822;10.152;2023-08-24T22:47:03;5.53;;;1.77;;
26512;SDS011;14186;53.822;10.152;2023-08-24T22:52:03;4.90;;;1.45;;
26512;SDS011;14186;53.822;10.152;2023-08-24T22:57:04;3.17;;;2.10;;
26512;SDS011;14186;53.822;10.152;2023-08-24T23:02:05;8.87;;;2.20;;
26512;SDS011;14186;53.822;10.152;2023-08-24T23:07:06;4.47;;;2.00;;
26512;SDS011;14186;53.822;10.152;2023-08-24T23:12:06;5.82;;;2.00;;
26512;SDS011;14186;53.822;10.152;2023-08-24T23:17:07;4.55;;;2.20;;
26512;SDS011;14186;53.822;10.152;2023-08-24T23:22:08;5.70;;;2.67;;
26512;SDS011;14186;53.822;10.152;2023-08-24T23:27:08;3.92;;;2.08;;
26512;SDS011;14186;53.822;10.152;2023-08-24T23:32:09;3.92;;;2.53;;
26512;SDS011;14186;53.822;10.152;2023-08-24T23:37:10;7.13;;;3.10;;
26512;SDS011;14186;53.822;10.152;2023-08-24T23:42:10;3.90;;;2.65;;
26512;SDS011;14186;53.822;10.152;2023-08-24T23:47:11;5.28;;;2.47;;
26512;SDS011;14186;53.822;10.152;2023-08-24T23:52:11;4.40;;;2.42;;
26512;SDS011;14186;53.822;10.152;2023-08-24T23:57:12;4.18;;;2.70;;
